Rose Hill, Texas
Current Conditions -  °F | °C
As of 8:53 AM on Friday 31 Oct 2014 (Local Time) from KDWH Reporting Station
Clear Clear  
Wind Chill: 62°   Ceiling: Unl
Heat Index: 62°   Visibility: 10mi
Dew Point: 51°   Wind: 9mph
Humidity: 67%   Direction: 360°N
Pressure: 30.18"   Gusts: NA
Location:  30.0721°N, 95.6453°W
Report Text: KDWH 311353Z 36008KT 10SM CLR 17/11 A3018 RMK AO2 SLP217 T01670106
Loading
Personal Weather Stations






























Interactive Weather Map
Tropical Storm Tracking
New forecast layout! Learn more

10-Day Weather Forecast

Advertisements
Track Severe Weather on mobile